Time;durP1;ratioP1;P1;durP2;ratioP2;P2;SDS_P1;SDS_P2;PMS_P1;PMS_P2;Temp;Humidity;BMP_temperature;BMP_pressure;BME280_temperature;BME280_humidity;BME280_pressure;Samples;Min_cycle;Max_cycle;Signal;HPM_P1;HPM_P2
2022/03/02 00:00:49;;;;;;;;;;;;;;;15.82;53.06;102386.97;1044629;28;924;-71
2022/03/02 00:01:39;;;;;;;;;;;;;;;15.80;53.05;102386.19;1044527;28;708;-70
2022/03/02 00:02:30;;;;;;;;;;;;;;;15.80;52.63;102383.50;1044547;28;721;-71
2022/03/02 00:03:20;;;;;;;;;;;;;;;15.81;52.76;102386.09;1044850;28;693;-71
2022/03/02 00:04:11;;;;;;;;;;;;;;;15.79;52.89;102382.66;1044537;28;675;-71
2022/03/02 00:05:01;;;;;;;;;;;;;;;15.79;52.54;102385.34;1044757;28;855;-71
2022/03/02 00:05:51;;;;;;;;;;;;;;;15.80;52.70;102386.19;1044332;28;1747;-71
2022/03/02 00:06:42;;;;;;;;;;;;;;;15.79;52.61;102381.78;1041134;28;656;-72
2022/03/02 00:07:32;;;;;;;;;;;;;;;15.79;52.54;102388.03;1041669;28;809;-72
2022/03/02 00:08:23;;;;;;;;;;;;;;;15.79;52.88;102387.16;1041084;28;728;-73
2022/03/02 00:09:13;;;;;;;;;;;;;;;15.78;52.47;102374.69;1041507;28;797;-72
2022/03/02 00:10:03;;;;;;;;;;;;;;;15.78;52.31;102377.38;1041655;28;644;-68
2022/03/02 00:10:54;;;;;;;;;;;;;;;15.79;52.66;102384.47;1041763;28;780;-69
2022/03/02 00:11:44;;;;;;;;;;;;;;;15.78;52.68;102383.59;1041647;28;641;-69
2022/03/02 00:12:35;;;;;;;;;;;;;;;15.77;52.89;102383.69;1041489;28;704;-69
2022/03/02 00:13:25;;;;;;;;;;;;;;;15.77;52.51;102381.00;1041467;28;928;-70
2022/03/02 00:14:15;;;;;;;;;;;;;;;15.77;52.51;102379.19;1041571;28;921;-69
2022/03/02 00:15:06;;;;;;;;;;;;;;;15.77;52.83;102381.00;1041500;28;671;-70
2022/03/02 00:15:56;;;;;;;;;;;;;;;15.76;52.69;102382.00;1042264;28;2207;-69
2022/03/02 00:16:47;;;;;;;;;;;;;;;15.75;52.61;102374.91;1045766;28;629;-69
2022/03/02 00:17:37;;;;;;;;;;;;;;;15.76;52.45;102377.50;1044443;28;745;-69
2022/03/02 00:18:28;;;;;;;;;;;;;;;15.76;52.79;102376.63;1044503;28;793;-69
2022/03/02 00:19:18;;;;;;;;;;;;;;;15.74;52.77;102384.78;1045365;28;829;-69
2022/03/02 00:20:08;;;;;;;;;;;;;;;15.74;52.68;102383.91;1045797;28;803;-69
2022/03/02 00:20:59;;;;;;;;;;;;;;;15.73;52.75;102376.81;1045726;28;641;-69
2022/03/02 00:21:49;;;;;;;;;;;;;;;15.73;52.71;102383.06;1045700;28;970;-69
2022/03/02 00:22:40;;;;;;;;;;;;;;;15.74;52.40;102379.41;1044767;28;773;-70
2022/03/02 00:23:30;;;;;;;;;;;;;;;15.74;52.62;102381.22;1044512;28;741;-70
2022/03/02 00:24:21;;;;;;;;;;;;;;;15.73;52.47;102390.25;1044587;28;763;-70
2022/03/02 00:25:11;;;;;;;;;;;;;;;15.73;52.76;102385.75;1045240;28;746;-70
2022/03/02 00:26:01;;;;;;;;;;;;;;;15.72;52.82;102391.22;1045702;28;949;-69
2022/03/02 00:26:52;;;;;;;;;;;;;;;15.72;52.27;102385.84;1045655;28;777;-69
2022/03/02 00:27:42;;;;;;;;;;;;;;;15.70;52.64;102385.06;1045647;28;847;-69
2022/03/02 00:28:33;;;;;;;;;;;;;;;15.70;52.65;102382.38;1045623;28;1851;-69
2022/03/02 00:29:23;;;;;;;;;;;;;;;15.70;52.69;102393.13;1044730;28;801;-69
2022/03/02 00:30:14;;;;;;;;;;;;;;;15.70;52.95;102387.75;1044575;28;734;-67
2022/03/02 00:31:04;;;;;;;;;;;;;;;15.70;53.28;102393.13;1044698;28;638;-69
2022/03/02 00:31:54;;;;;;;;;;;;;;;15.69;52.92;102391.41;1044426;28;927;-70
2022/03/02 00:32:45;;;;;;;;;;;;;;;15.69;52.79;102388.69;1044629;28;816;-70
2022/03/02 00:33:35;;;;;;;;;;;;;;;15.67;52.85;102386.09;1044115;28;863;-70
2022/03/02 00:34:26;;;;;;;;;;;;;;;15.69;52.73;102391.41;1044390;28;1894;-70
2022/03/02 00:35:17;;;;;;;;;;;;;;;15.68;53.09;102392.34;1044705;28;819;-70
2022/03/02 00:36:07;;;;;;;;;;;;;;;15.68;52.86;102384.28;1040649;28;1891;-71
2022/03/02 00:36:57;;;;;;;;;;;;;;;15.67;52.65;102382.56;1040121;28;645;-71
2022/03/02 00:37:48;;;;;;;;;;;;;;;15.67;52.53;102387.94;1040807;28;679;-71
2022/03/02 00:38:38;;;;;;;;;;;;;;;15.67;52.50;102385.25;1040830;28;672;-70
2022/03/02 00:39:29;;;;;;;;;;;;;;;15.66;52.37;102383.50;1041066;28;718;-71
2022/03/02 00:40:19;;;;;;;;;;;;;;;15.65;52.71;102385.34;1041066;28;989;-71
2022/03/02 00:41:09;;;;;;;;;;;;;;;15.66;52.40;102386.19;1041019;28;834;-71
2022/03/02 00:42:00;;;;;;;;;;;;;;;15.65;52.57;102387.16;1041175;28;685;-73
2022/03/02 00:42:50;;;;;;;;;;;;;;;15.65;52.83;102389.84;1041032;28;645;-74
2022/03/02 00:43:41;;;;;;;;;;;;;;;15.63;52.58;102374.69;1041020;28;746;-74
2022/03/02 00:44:31;;;;;;;;;;;;;;;15.63;52.57;102372.00;1040895;28;842;-74
2022/03/02 00:45:22;;;;;;;;;;;;;;;15.63;52.76;102388.13;1040913;28;770;-74
2022/03/02 00:46:12;;;;;;;;;;;;;;;15.65;52.53;102379.09;1044748;28;1682;-74
2022/03/02 00:47:03;;;;;;;;;;;;;;;15.62;52.54;102381.00;1045693;28;845;-74
2022/03/02 00:47:53;;;;;;;;;;;;;;;15.62;52.68;102381.00;1045670;28;638;-75
2022/03/02 00:48:43;;;;;;;;;;;;;;;15.63;52.71;102382.75;1045569;28;854;-74
2022/03/02 00:49:34;;;;;;;;;;;;;;;15.62;52.37;102383.69;1045629;28;709;-75
2022/03/02 00:50:24;;;;;;;;;;;;;;;15.62;52.25;102385.53;1045470;28;1364;-75
2022/03/02 00:51:15;;;;;;;;;;;;;;;15.61;52.80;102378.41;1045628;28;1401;-75
2022/03/02 00:52:06;;;;;;;;;;;;;;;15.61;52.90;102379.28;1042382;28;657;-75
2022/03/02 00:52:57;;;;;;;;;;;;;;;15.60;52.70;102388.28;1041170;28;962;-75
2022/03/02 00:53:47;;;;;;;;;;;;;;;15.61;52.69;102376.59;1040340;28;689;-75
2022/03/02 00:54:37;;;;;;;;;;;;;;;15.61;53.07;102379.28;1040694;28;1911;-75
2022/03/02 00:55:28;;;;;;;;;;;;;;;15.60;52.23;102380.22;1044553;28;758;-71
2022/03/02 00:56:18;;;;;;;;;;;;;;;15.59;52.89;102374.94;1045590;28;713;-71
2022/03/02 00:57:09;;;;;;;;;;;;;;;15.59;52.73;102377.63;1045570;28;876;-71
2022/03/02 00:57:59;;;;;;;;;;;;;;;15.56;53.05;102367.97;1045232;28;1865;-73
2022/03/02 00:58:50;;;;;;;;;;;;;;;15.57;52.61;102367.00;1045459;28;697;-69
2022/03/02 00:59:40;;;;;;;;;;;;;;;15.55;52.75;102363.56;1045273;28;748;-70
2022/03/02 01:00:31;;;;;;;;;;;;;;;15.56;52.82;102367.97;1045283;28;696;-70
2022/03/02 01:01:21;;;;;;;;;;;;;;;15.56;52.56;102370.66;1045403;28;923;-69
2022/03/02 01:02:11;;;;;;;;;;;;;;;15.55;52.98;102363.56;1045251;28;885;-69
2022/03/02 01:03:02;;;;;;;;;;;;;;;15.56;53.01;102362.59;1045370;28;637;-69
2022/03/02 01:03:52;;;;;;;;;;;;;;;15.55;52.98;102357.28;1045214;28;1118;-69
2022/03/02 01:04:43;;;;;;;;;;;;;;;15.54;52.53;102364.47;1044891;28;677;-69
2022/03/02 01:05:33;;;;;;;;;;;;;;;15.55;52.83;102358.19;1041904;28;891;-69
2022/03/02 01:06:24;;;;;;;;;;;;;;;15.55;52.95;102357.28;1041995;28;741;-70
2022/03/02 01:07:14;;;;;;;;;;;;;;;15.55;52.41;102358.19;1046048;28;720;-69
2022/03/02 01:08:04;;;;;;;;;;;;;;;15.55;52.60;102362.66;1045209;28;803;-69
2022/03/02 01:08:55;;;;;;;;;;;;;;;15.55;52.59;102351.91;1045395;28;685;-68
2022/03/02 01:09:45;;;;;;;;;;;;;;;15.53;52.74;102365.44;1045209;28;1820;-69
2022/03/02 01:10:36;;;;;;;;;;;;;;;15.53;52.71;102356.50;1042441;28;716;-69
2022/03/02 01:11:26;;;;;;;;;;;;;;;15.53;53.05;102365.44;1037926;28;750;-69
2022/03/02 01:12:16;;;;;;;;;;;;;;;15.52;52.81;102357.47;1034488;28;715;-69
2022/03/02 01:13:07;;;;;;;;;;;;;;;15.51;52.71;102356.59;1038999;28;642;-69
2022/03/02 01:13:57;;;;;;;;;;;;;;;15.50;52.76;102357.56;1041640;28;837;-70
2022/03/02 01:14:48;;;;;;;;;;;;;;;15.52;52.84;102362.84;1042217;28;1945;-69
2022/03/02 01:15:38;;;;;;;;;;;;;;;15.49;53.25;102361.19;1042061;28;712;-69
2022/03/02 01:16:29;;;;;;;;;;;;;;;15.50;52.96;102362.94;1042319;28;804;-69
2022/03/02 01:17:20;;;;;;;;;;;;;;;15.50;52.79;102362.06;1041776;28;741;-70
2022/03/02 01:18:11;;;;;;;;;;;;;;;15.50;52.77;102362.06;1042179;28;975;-69
2022/03/02 01:19:01;;;;;;;;;;;;;;;15.51;53.01;102358.44;1041837;28;637;-69
2022/03/02 01:19:51;;;;;;;;;;;;;;;15.50;52.87;102356.69;1042242;28;846;-70
2022/03/02 01:20:42;;;;;;;;;;;;;;;15.49;52.91;102358.50;1041591;28;959;-70
2022/03/02 01:21:32;;;;;;;;;;;;;;;15.49;52.68;102358.50;1042151;28;728;-70
2022/03/02 01:22:23;;;;;;;;;;;;;;;15.49;53.02;102357.66;1041663;28;868;-69
2022/03/02 01:23:13;;;;;;;;;;;;;;;15.48;52.87;102359.47;1042092;28;708;-69
2022/03/02 01:24:04;;;;;;;;;;;;;;;15.47;52.62;102363.13;1045515;28;1999;-72
2022/03/02 01:24:55;;;;;;;;;;;;;;;15.48;52.57;102362.16;1045358;28;618;-70
2022/03/02 01:25:45;;;;;;;;;;;;;;;15.47;53.18;102360.44;1046394;28;697;-70
2022/03/02 01:26:36;;;;;;;;;;;;;;;15.47;53.19;102364.94;1045249;28;871;-70
2022/03/02 01:27:26;;;;;;;;;;;;;;;15.44;53.03;102363.28;1045256;28;768;-70
2022/03/02 01:28:17;;;;;;;;;;;;;;;15.45;52.63;102356.97;1045165;28;872;-70
2022/03/02 01:29:07;;;;;;;;;;;;;;;15.45;53.05;102356.97;1045331;28;689;-70
2022/03/02 01:29:58;;;;;;;;;;;;;;;15.45;52.90;102364.16;1045105;28;725;-70
2022/03/02 01:30:48;;;;;;;;;;;;;;;15.45;53.24;102361.47;1046386;28;819;-70
2022/03/02 01:31:38;;;;;;;;;;;;;;;15.44;53.05;102363.28;1045156;28;732;-69
2022/03/02 01:32:29;;;;;;;;;;;;;;;15.43;52.64;102364.25;1045149;28;720;-70
2022/03/02 01:33:19;;;;;;;;;;;;;;;15.43;52.87;102364.25;1045528;28;839;-70
2022/03/02 01:34:10;;;;;;;;;;;;;;;15.43;52.80;102364.25;1041037;28;2053;-70
2022/03/02 01:35:00;;;;;;;;;;;;;;;15.44;52.75;102360.59;1041657;28;702;-69
2022/03/02 01:35:50;;;;;;;;;;;;;;;15.43;52.75;102361.56;1043802;28;1824;-69
2022/03/02 01:36:41;;;;;;;;;;;;;;;15.42;52.85;102362.53;1041760;28;764;-71
2022/03/02 01:37:31;;;;;;;;;;;;;;;15.41;53.08;102355.41;1041998;28;717;-71
2022/03/02 01:38:22;;;;;;;;;;;;;;;15.42;53.10;102354.47;1045841;28;750;-71
2022/03/02 01:39:12;;;;;;;;;;;;;;;15.42;53.30;102353.59;1045042;28;853;-71
2022/03/02 01:40:03;;;;;;;;;;;;;;;15.41;53.24;102355.41;1045173;28;682;-71
2022/03/02 01:40:53;;;;;;;;;;;;;;;15.41;53.21;102344.66;1045259;28;834;-72
2022/03/02 01:41:43;;;;;;;;;;;;;;;15.41;53.34;102347.38;1045117;28;646;-72
2022/03/02 01:42:34;;;;;;;;;;;;;;;15.40;53.27;102342.13;1045346;28;690;-71
2022/03/02 01:43:27;;;;;;;;;;;;;;;15.41;53.29;102349.19;1045394;28;835;-70
2022/03/02 01:44:18;;;;;;;;;;;;;;;15.40;53.22;102344.78;1045238;28;698;-70
2022/03/02 01:45:08;;;;;;;;;;;;;;;15.38;53.52;102336.84;1045221;28;836;-70
2022/03/02 01:45:58;;;;;;;;;;;;;;;15.37;53.54;102345.84;1044633;28;1995;-70
2022/03/02 01:46:49;;;;;;;;;;;;;;;15.39;52.88;102338.56;1041494;28;959;-69
2022/03/02 01:47:39;;;;;;;;;;;;;;;15.37;53.09;102335.09;1042250;28;725;-69
2022/03/02 01:48:30;;;;;;;;;;;;;;;15.39;53.33;102329.63;1042109;28;826;-70
2022/03/02 01:49:20;;;;;;;;;;;;;;;15.38;53.10;102326.09;1042185;28;860;-70
2022/03/02 01:50:10;;;;;;;;;;;;;;;15.38;53.05;102323.41;1042202;28;714;-70
2022/03/02 01:51:01;;;;;;;;;;;;;;;15.36;53.36;102328.00;1041976;28;1962;-70
2022/03/02 01:51:51;;;;;;;;;;;;;;;15.36;52.84;102319.94;1041514;28;713;-70
2022/03/02 01:52:42;;;;;;;;;;;;;;;15.38;53.23;102322.53;1042275;28;634;-69
2022/03/02 01:53:32;;;;;;;;;;;;;;;15.37;53.12;102324.34;1041645;28;772;-69
2022/03/02 01:54:22;;;;;;;;;;;;;;;15.36;53.41;102319.06;1045268;28;1865;-69
2022/03/02 01:55:13;;;;;;;;;;;;;;;15.35;53.38;102322.72;1044504;28;714;-69
2022/03/02 01:56:03;;;;;;;;;;;;;;;15.34;53.43;102316.47;1046039;28;1922;-69
2022/03/02 01:56:54;;;;;;;;;;;;;;;15.33;53.17;102312.06;1041800;28;653;-70
2022/03/02 01:57:44;;;;;;;;;;;;;;;15.33;53.17;102314.75;1041934;28;849;-70
2022/03/02 01:58:34;;;;;;;;;;;;;;;15.34;52.97;102321.84;1045551;28;832;-70
2022/03/02 01:59:25;;;;;;;;;;;;;;;15.34;53.31;102321.00;1045123;28;773;-70
2022/03/02 02:00:16;;;;;;;;;;;;;;;15.35;53.50;102317.34;1044878;28;712;-69
2022/03/02 02:01:06;;;;;;;;;;;;;;;15.35;53.10;102318.22;1045231;28;638;-69
2022/03/02 02:01:56;;;;;;;;;;;;;;;15.35;52.96;102323.59;1041775;28;825;-70
2022/03/02 02:02:47;;;;;;;;;;;;;;;15.34;53.75;102318.31;1041986;28;664;-70
2022/03/02 02:03:38;;;;;;;;;;;;;;;15.34;52.98;102321.84;1042164;28;776;-70
2022/03/02 02:04:28;;;;;;;;;;;;;;;15.34;52.88;102321.84;1038855;28;1879;-70
2022/03/02 02:05:19;;;;;;;;;;;;;;;15.34;52.89;102326.34;1042651;28;748;-70
2022/03/02 02:06:10;;;;;;;;;;;;;;;15.32;53.49;102313.03;1042608;28;950;-70
2022/03/02 02:07:00;;;;;;;;;;;;;;;15.33;53.34;102314.75;1038321;28;860;-70
2022/03/02 02:07:50;;;;;;;;;;;;;;;15.33;53.10;102317.44;1038353;28;852;-70
2022/03/02 02:08:41;;;;;;;;;;;;;;;15.33;53.30;102314.75;1042180;28;645;-70
2022/03/02 02:09:31;;;;;;;;;;;;;;;15.33;53.39;102306.69;1042764;28;788;-70
2022/03/02 02:10:22;;;;;;;;;;;;;;;15.33;53.49;102304.00;1041869;28;874;-70
2022/03/02 02:11:12;;;;;;;;;;;;;;;15.33;53.38;102312.06;1042721;28;764;-70
2022/03/02 02:12:03;;;;;;;;;;;;;;;15.32;52.90;102310.34;1042671;28;965;-76
2022/03/02 02:12:53;;;;;;;;;;;;;;;15.31;53.13;102313.97;1042688;28;676;-76
2022/03/02 02:13:43;;;;;;;;;;;;;;;15.32;53.15;102306.78;1042574;28;934;-75
2022/03/02 02:14:34;;;;;;;;;;;;;;;15.31;53.49;102308.59;1042567;28;1889;-73
2022/03/02 02:15:24;;;;;;;;;;;;;;;15.31;53.51;102307.75;1042623;28;1233;-72
2022/03/02 02:16:16;;;;;;;;;;;;;;;15.29;53.03;102308.69;1042622;28;855;-71
2022/03/02 02:17:06;;;;;;;;;;;;;;;15.28;53.31;102311.47;1042720;28;637;-72
2022/03/02 02:17:57;;;;;;;;;;;;;;;15.28;53.16;102303.41;1042595;28;612;-71
2022/03/02 02:18:50;;;;;;;;;;;;;;;15.27;53.16;102304.38;1042566;28;854;-71
2022/03/02 02:19:40;;;;;;;;;;;;;;;15.29;53.54;102305.16;1042639;28;782;-70
2022/03/02 02:20:31;;;;;;;;;;;;;;;15.29;53.13;102308.69;1042458;28;907;-70
2022/03/02 02:21:21;;;;;;;;;;;;;;;15.29;53.33;102303.31;1042704;28;843;-72
2022/03/02 02:22:11;;;;;;;;;;;;;;;15.30;53.58;102309.56;1042571;28;757;-72
2022/03/02 02:23:02;;;;;;;;;;;;;;;15.29;53.66;102305.16;1042440;28;638;-74
2022/03/02 02:23:52;;;;;;;;;;;;;;;15.27;53.56;102299.00;1042168;28;771;-72
2022/03/02 02:24:43;;;;;;;;;;;;;;;15.27;53.11;102299.00;1045318;28;2047;-73
2022/03/02 02:25:33;;;;;;;;;;;;;;;15.27;53.09;102302.56;1046168;28;754;-71
2022/03/02 02:26:25;;;;;;;;;;;;;;;15.26;53.05;102298.13;1046152;28;723;-72
2022/03/02 02:27:15;;;;;;;;;;;;;;;15.27;53.53;102299.00;1046182;28;700;-70
2022/03/02 02:28:06;;;;;;;;;;;;;;;15.26;53.59;102300.81;1046160;28;570;-71
2022/03/02 02:28:56;;;;;;;;;;;;;;;15.25;53.74;102291.03;1046090;28;774;-71
2022/03/02 02:29:47;;;;;;;;;;;;;;;15.27;53.00;102299.00;1046137;28;676;-72
2022/03/02 02:30:37;;;;;;;;;;;;;;;15.26;53.45;102298.13;1046076;28;697;-70
2022/03/02 02:31:28;;;;;;;;;;;;;;;15.27;53.91;102304.38;1045601;28;640;-70
2022/03/02 02:32:18;;;;;;;;;;;;;;;15.25;53.67;102293.72;1046138;28;680;-70
2022/03/02 02:33:10;;;;;;;;;;;;;;;15.24;53.25;102292.00;1046080;28;942;-70
2022/03/02 02:34:00;;;;;;;;;;;;;;;15.21;53.50;102291.34;1046176;28;720;-70
2022/03/02 02:34:50;;;;;;;;;;;;;;;15.22;53.44;102287.69;1041807;28;1891;-69
2022/03/02 02:35:41;;;;;;;;;;;;;;;15.22;53.80;102285.00;1041858;28;1037;-70
2022/03/02 02:36:31;;;;;;;;;;;;;;;15.23;53.46;102286.72;1041461;28;626;-70
2022/03/02 02:37:23;;;;;;;;;;;;;;;15.24;53.27;102300.03;1041772;28;626;-71
2022/03/02 02:38:13;;;;;;;;;;;;;;;15.23;53.46;102289.41;1041574;28;699;-71
2022/03/02 02:39:03;;;;;;;;;;;;;;;15.24;53.28;102283.06;1042013;28;631;-71
2022/03/02 02:39:54;;;;;;;;;;;;;;;15.25;53.27;102284.78;1041444;28;651;-71
2022/03/02 02:40:44;;;;;;;;;;;;;;;15.24;53.35;102288.44;1041995;28;1056;-69
2022/03/02 02:41:35;;;;;;;;;;;;;;;15.24;53.20;102288.44;1041385;28;856;-73
2022/03/02 02:42:25;;;;;;;;;;;;;;;15.22;53.45;102287.69;1041997;28;803;-69
2022/03/02 02:43:16;;;;;;;;;;;;;;;15.21;53.63;102285.97;1041964;28;844;-69
2022/03/02 02:44:06;;;;;;;;;;;;;;;15.22;53.54;102287.69;1042013;28;731;-70
2022/03/02 02:44:56;;;;;;;;;;;;;;;15.20;53.45;102282.41;1042096;28;698;-69
2022/03/02 02:45:47;;;;;;;;;;;;;;;15.19;53.45;102285.19;1041911;28;838;-69
2022/03/02 02:46:37;;;;;;;;;;;;;;;15.20;53.50;102286.94;1045831;28;2156;-69
2022/03/02 02:47:28;;;;;;;;;;;;;;;15.19;53.49;102279.81;1044913;28;767;-69
2022/03/02 02:48:18;;;;;;;;;;;;;;;15.19;53.68;102285.19;1044958;28;803;-69
2022/03/02 02:49:09;;;;;;;;;;;;;;;15.20;53.66;102286.94;1044808;28;622;-69
2022/03/02 02:49:59;;;;;;;;;;;;;;;15.18;53.86;102283.47;1044941;28;845;-69
2022/03/02 02:50:50;;;;;;;;;;;;;;;15.17;53.41;102276.38;1044729;28;1457;-69
2022/03/02 02:51:40;;;;;;;;;;;;;;;15.17;53.03;102279.06;1044853;28;851;-69
2022/03/02 02:52:31;;;;;;;;;;;;;;;15.18;53.81;102278.09;1045041;28;697;-68
2022/03/02 02:53:21;;;;;;;;;;;;;;;15.18;53.10;102278.09;1044971;28;779;-68
2022/03/02 02:54:12;;;;;;;;;;;;;;;15.18;53.80;102275.41;1041602;28;861;-68
2022/03/02 02:55:02;;;;;;;;;;;;;;;15.18;53.32;102275.41;1041688;28;724;-68
2022/03/02 02:55:53;;;;;;;;;;;;;;;15.18;53.43;102276.28;1045716;28;1894;-68
2022/03/02 02:56:44;;;;;;;;;;;;;;;15.18;53.71;102281.66;1041604;28;635;-68
2022/03/02 02:57:34;;;;;;;;;;;;;;;15.18;53.61;102278.97;1041574;28;850;-68
2022/03/02 02:58:25;;;;;;;;;;;;;;;15.19;53.58;102279.81;1045419;28;845;-68
2022/03/02 02:59:15;;;;;;;;;;;;;;;15.17;53.27;102276.38;1045904;28;862;-68
2022/03/02 03:00:06;;;;;;;;;;;;;;;15.17;53.67;102271.00;1044696;28;734;-68
2022/03/02 03:00:56;;;;;;;;;;;;;;;15.15;53.23;102273.78;1044963;28;787;-69
2022/03/02 03:01:46;;;;;;;;;;;;;;;15.15;53.71;102267.53;1045109;28;646;-68
2022/03/02 03:02:37;;;;;;;;;;;;;;;15.16;53.62;102272.81;1044830;28;861;-69
2022/03/02 03:03:27;;;;;;;;;;;;;;;15.14;53.72;102265.81;1044917;28;751;-69
2022/03/02 03:04:18;;;;;;;;;;;;;;;15.15;53.48;102267.53;1041512;28;882;-69
2022/03/02 03:05:08;;;;;;;;;;;;;;;15.16;53.50;102271.94;1041731;28;758;-69
2022/03/02 03:05:59;;;;;;;;;;;;;;;15.15;53.17;102267.53;1042150;28;712;-68
2022/03/02 03:06:49;;;;;;;;;;;;;;;15.17;52.89;102265.63;1042209;28;796;-69
2022/03/02 03:07:39;;;;;;;;;;;;;;;15.17;53.08;102269.19;1045470;28;744;-69
2022/03/02 03:08:30;;;;;;;;;;;;;;;15.14;53.78;102269.34;1044757;28;786;-69
2022/03/02 03:09:20;;;;;;;;;;;;;;;15.13;53.07;102258.72;1044983;28;789;-69
2022/03/02 03:10:11;;;;;;;;;;;;;;;15.13;53.69;102264.06;1041614;28;767;-70
2022/03/02 03:11:03;;;;;;;;;;;;;;;15.12;53.67;102267.72;1041720;28;805;-71
2022/03/02 03:11:54;;;;;;;;;;;;;;;15.12;53.22;102257.84;1045521;28;704;-69
2022/03/02 03:12:45;;;;;;;;;;;;;;;15.12;53.67;102262.34;1044682;28;761;-69
2022/03/02 03:13:35;;;;;;;;;;;;;;;15.11;53.24;102266.00;1044803;28;725;-69
2022/03/02 03:14:25;;;;;;;;;;;;;;;15.10;53.61;102265.13;1044747;28;823;-69
2022/03/02 03:15:16;;;;;;;;;;;;;;;15.08;53.27;102264.34;1044797;28;717;-69
2022/03/02 03:16:07;;;;;;;;;;;;;;;15.09;53.57;102262.53;1044854;28;646;-70
2022/03/02 03:16:58;;;;;;;;;;;;;;;15.10;53.27;102267.81;1044679;28;836;-69
2022/03/02 03:17:48;;;;;;;;;;;;;;;15.10;53.71;102265.13;1041232;28;668;-70
2022/03/02 03:18:39;;;;;;;;;;;;;;;15.11;53.35;102266.84;1041739;28;738;-70
2022/03/02 03:19:29;;;;;;;;;;;;;;;15.11;53.31;102266.84;1041889;28;721;-69
2022/03/02 03:20:20;;;;;;;;;;;;;;;15.08;53.72;102268.84;1041880;28;751;-69
2022/03/02 03:21:10;;;;;;;;;;;;;;;15.10;53.20;102269.63;1041692;28;773;-70
2022/03/02 03:22:00;;;;;;;;;;;;;;;15.11;53.17;102272.22;1041869;28;700;-70
2022/03/02 03:22:51;;;;;;;;;;;;;;;15.11;53.24;102271.38;1041812;28;702;-69
2022/03/02 03:23:41;;;;;;;;;;;;;;;15.08;53.18;102260.81;1041952;28;657;-69
2022/03/02 03:24:32;;;;;;;;;;;;;;;15.08;53.58;102255.44;1038016;28;707;-69
2022/03/02 03:25:22;;;;;;;;;;;;;;;15.09;53.58;102259.84;1037892;28;962;-69
2022/03/02 03:26:12;;;;;;;;;;;;;;;15.09;53.60;102257.16;1041825;28;689;-69
2022/03/02 03:27:03;;;;;;;;;;;;;;;15.07;53.34;102259.94;1041874;28;817;-70
2022/03/02 03:27:53;;;;;;;;;;;;;;;15.07;53.18;102257.25;1041287;28;680;-69
2022/03/02 03:28:44;;;;;;;;;;;;;;;15.06;53.52;102255.53;1041798;28;615;-69
2022/03/02 03:29:34;;;;;;;;;;;;;;;15.06;53.25;102254.66;1044255;28;1920;-69
2022/03/02 03:30:24;;;;;;;;;;;;;;;15.05;53.67;102255.66;1044613;28;875;-69
2022/03/02 03:31:15;;;;;;;;;;;;;;;15.06;53.50;102251.97;1044549;28;2122;-69
2022/03/02 03:32:06;;;;;;;;;;;;;;;15.06;53.13;102251.97;1045894;28;676;-69
2022/03/02 03:32:56;;;;;;;;;;;;;;;15.05;53.27;102244.91;1044263;28;632;-69
2022/03/02 03:33:46;;;;;;;;;;;;;;;15.05;53.19;102248.44;1041409;28;876;-69
2022/03/02 03:34:37;;;;;;;;;;;;;;;15.05;53.34;102251.09;1040326;28;1971;-69
2022/03/02 03:35:27;;;;;;;;;;;;;;;15.05;53.62;102244.91;1045224;28;1149;-69
2022/03/02 03:36:18;;;;;;;;;;;;;;;15.05;53.11;102239.53;1044657;28;850;-69
2022/03/02 03:37:08;;;;;;;;;;;;;;;15.05;53.34;102242.22;1044752;28;855;-69
2022/03/02 03:37:58;;;;;;;;;;;;;;;15.04;53.25;102251.22;1045775;28;924;-69
2022/03/02 03:38:49;;;;;;;;;;;;;;;15.05;53.38;102244.91;1044770;28;743;-69
2022/03/02 03:39:42;;;;;;;;;;;;;;;15.04;53.36;102232.44;1045366;28;761;-69
2022/03/02 03:40:33;;;;;;;;;;;;;;;15.05;53.41;102244.91;1044571;28;788;-69
2022/03/02 03:41:23;;;;;;;;;;;;;;;15.02;53.58;102243.28;1044708;28;1962;-72
2022/03/02 03:42:13;;;;;;;;;;;;;;;15.04;52.99;102236.00;1045401;28;1130;-72
2022/03/02 03:43:04;;;;;;;;;;;;;;;15.04;53.49;102237.81;1045943;28;673;-74
2022/03/02 03:43:54;;;;;;;;;;;;;;;15.05;53.60;102239.53;1045321;28;781;-73
2022/03/02 03:44:45;;;;;;;;;;;;;;;15.03;53.00;102230.72;1045028;28;624;-72
2022/03/02 03:45:36;;;;;;;;;;;;;;;15.02;53.64;102234.34;1045852;28;780;-72
2022/03/02 03:46:26;;;;;;;;;;;;;;;15.02;52.96;102237.03;1045483;28;1564;-72
2022/03/02 03:47:16;;;;;;;;;;;;;;;15.02;53.07;102237.03;1045718;28;800;-73
2022/03/02 03:48:07;;;;;;;;;;;;;;;15.02;53.57;102235.22;1045713;28;781;-73
2022/03/02 03:48:57;;;;;;;;;;;;;;;15.03;53.62;102228.88;1045744;28;798;-72
2022/03/02 03:49:48;;;;;;;;;;;;;;;15.02;53.17;102234.34;1045749;28;723;-72
2022/03/02 03:50:39;;;;;;;;;;;;;;;15.00;53.79;102228.22;1045719;28;1359;-72
2022/03/02 03:51:30;;;;;;;;;;;;;;;15.01;53.25;102238.00;1044627;28;641;-72
2022/03/02 03:52:20;;;;;;;;;;;;;;;15.00;53.51;102225.53;1045684;28;740;-72
2022/03/02 03:53:11;;;;;;;;;;;;;;;14.99;53.13;102232.72;1045741;28;706;-72
2022/03/02 03:54:01;;;;;;;;;;;;;;;14.97;53.42;102231.94;1042317;28;646;-72
2022/03/02 03:54:51;;;;;;;;;;;;;;;14.99;53.16;102231.84;1041624;28;1902;-72
2022/03/02 03:55:42;;;;;;;;;;;;;;;14.98;53.77;102235.50;1041749;28;642;-72
2022/03/02 03:56:32;;;;;;;;;;;;;;;15.00;53.57;102228.22;1041610;28;723;-72
2022/03/02 03:57:23;;;;;;;;;;;;;;;15.01;53.39;102235.31;1041662;28;794;-72
2022/03/02 03:58:13;;;;;;;;;;;;;;;15.00;53.52;102228.22;1041709;28;780;-74
2022/03/02 03:59:03;;;;;;;;;;;;;;;14.99;53.01;102230.03;1041755;28;622;-74
2022/03/02 03:59:54;;;;;;;;;;;;;;;14.99;53.48;102232.72;1041505;28;679;-74
2022/03/02 04:00:44;;;;;;;;;;;;;;;14.98;53.62;102232.81;1041640;28;914;-74
2022/03/02 04:01:35;;;;;;;;;;;;;;;14.98;53.06;102232.81;1041755;28;718;-74
2022/03/02 04:02:25;;;;;;;;;;;;;;;14.99;53.46;102234.53;1041621;28;701;-74
2022/03/02 04:03:16;;;;;;;;;;;;;;;14.98;53.53;102239.03;1041749;28;719;-73
2022/03/02 04:04:07;;;;;;;;;;;;;;;14.97;53.10;102231.06;1041674;28;614;-73
2022/03/02 04:04:57;;;;;;;;;;;;;;;14.98;53.23;102232.81;1041617;28;914;-72
2022/03/02 04:05:47;;;;;;;;;;;;;;;14.98;53.21;102233.66;1042095;28;1804;-73
2022/03/02 04:06:38;;;;;;;;;;;;;;;14.98;53.67;102232.81;1044716;28;815;-73
2022/03/02 04:07:29;;;;;;;;;;;;;;;14.96;53.19;102229.34;1045007;28;958;-72
2022/03/02 04:08:20;;;;;;;;;;;;;;;14.94;53.33;102232.13;1044630;28;667;-73
2022/03/02 04:09:10;;;;;;;;;;;;;;;14.93;53.54;102228.56;1044516;28;835;-73
2022/03/02 04:10:01;;;;;;;;;;;;;;;14.94;53.59;102230.31;1044394;28;648;-68
2022/03/02 04:10:51;;;;;;;;;;;;;;;14.94;53.38;102232.13;1044028;28;667;-69
2022/03/02 04:11:41;;;;;;;;;;;;;;;14.94;53.25;102226.75;1044798;28;700;-69
2022/03/02 04:12:32;;;;;;;;;;;;;;;14.94;53.70;102227.63;1044677;28;764;-69
2022/03/02 04:13:22;;;;;;;;;;;;;;;14.93;53.49;102230.41;1044647;28;933;-69
2022/03/02 04:14:13;;;;;;;;;;;;;;;14.93;53.29;102225.03;1044463;28;693;-69
2022/03/02 04:15:03;;;;;;;;;;;;;;;14.93;53.59;102225.91;1044641;28;729;-69
2022/03/02 04:15:53;;;;;;;;;;;;;;;14.93;53.79;102230.41;1044755;28;618;-69
2022/03/02 04:16:44;;;;;;;;;;;;;;;14.93;53.71;102225.03;1044611;28;672;-69
2022/03/02 04:17:34;;;;;;;;;;;;;;;14.93;52.94;102225.91;1044467;28;1987;-70
2022/03/02 04:18:25;;;;;;;;;;;;;;;14.93;53.12;102225.91;1044496;28;735;-67
2022/03/02 04:19:15;;;;;;;;;;;;;;;14.93;53.02;102220.53;1045214;28;771;-69
2022/03/02 04:20:06;;;;;;;;;;;;;;;14.91;53.35;102225.13;1044594;28;622;-69
2022/03/02 04:20:56;;;;;;;;;;;;;;;14.90;53.22;102220.69;1044736;28;703;-69
2022/03/02 04:21:47;;;;;;;;;;;;;;;14.90;53.13;102220.69;1044447;28;924;-69
2022/03/02 04:22:37;;;;;;;;;;;;;;;14.91;53.60;102222.44;1041281;28;702;-69
2022/03/02 04:23:28;;;;;;;;;;;;;;;14.92;53.44;102220.63;1041259;28;823;-69
2022/03/02 04:24:18;;;;;;;;;;;;;;;14.93;53.52;102227.72;1044480;28;769;-69
2022/03/02 04:25:08;;;;;;;;;;;;;;;14.93;53.23;102227.72;1044715;28;709;-68
2022/03/02 04:25:59;;;;;;;;;;;;;;;14.92;53.80;102224.16;1044517;28;1132;-69